sensor_id;sensor_type;location;lat;lon;timestamp;P1;durP1;ratioP1;P2;durP2;ratioP2
35699;SDS011;21818;51.078;12.108;2023-04-09T00:02:10;23.35;;;13.57;;
35699;SDS011;21818;51.078;12.108;2023-04-09T00:04:36;25.17;;;14.15;;
35699;SDS011;21818;51.078;12.108;2023-04-09T00:07:01;23.85;;;14.20;;
35699;SDS011;21818;51.078;12.108;2023-04-09T00:09:27;24.52;;;14.27;;
35699;SDS011;21818;51.078;12.108;2023-04-09T00:11:52;22.23;;;12.95;;
35699;SDS011;21818;51.078;12.108;2023-04-09T00:14:18;25.05;;;14.10;;
35699;SDS011;21818;51.078;12.108;2023-04-09T00:16:44;23.98;;;13.52;;
35699;SDS011;21818;51.078;12.108;2023-04-09T00:19:09;25.50;;;13.85;;
35699;SDS011;21818;51.078;12.108;2023-04-09T00:21:35;23.48;;;13.65;;
35699;SDS011;21818;51.078;12.108;2023-04-09T00:24:01;24.70;;;14.52;;
35699;SDS011;21818;51.078;12.108;2023-04-09T00:26:27;26.80;;;14.05;;
35699;SDS011;21818;51.078;12.108;2023-04-09T00:28:52;25.15;;;14.52;;
35699;SDS011;21818;51.078;12.108;2023-04-09T00:31:18;25.67;;;14.32;;
35699;SDS011;21818;51.078;12.108;2023-04-09T00:33:43;26.77;;;14.98;;
35699;SDS011;21818;51.078;12.108;2023-04-09T00:36:09;24.98;;;14.13;;
35699;SDS011;21818;51.078;12.108;2023-04-09T00:38:35;24.02;;;15.18;;
35699;SDS011;21818;51.078;12.108;2023-04-09T00:41:00;25.20;;;15.05;;
35699;SDS011;21818;51.078;12.108;2023-04-09T00:43:26;27.00;;;15.07;;
35699;SDS011;21818;51.078;12.108;2023-04-09T00:45:51;24.63;;;13.55;;
35699;SDS011;21818;51.078;12.108;2023-04-09T00:48:17;24.23;;;13.48;;
35699;SDS011;21818;51.078;12.108;2023-04-09T00:50:42;25.30;;;14.07;;
35699;SDS011;21818;51.078;12.108;2023-04-09T00:53:09;22.73;;;13.85;;
35699;SDS011;21818;51.078;12.108;2023-04-09T00:55:36;25.23;;;13.68;;
35699;SDS011;21818;51.078;12.108;2023-04-09T00:58:04;24.67;;;13.95;;
35699;SDS011;21818;51.078;12.108;2023-04-09T01:00:30;24.23;;;13.98;;
35699;SDS011;21818;51.078;12.108;2023-04-09T01:02:56;25.67;;;13.90;;
35699;SDS011;21818;51.078;12.108;2023-04-09T01:05:23;29.17;;;15.73;;
35699;SDS011;21818;51.078;12.108;2023-04-09T01:08:18;26.48;;;14.23;;
35699;SDS011;21818;51.078;12.108;2023-04-09T01:11:11;25.25;;;13.85;;
35699;SDS011;21818;51.078;12.108;2023-04-09T01:14:04;27.90;;;14.07;;
35699;SDS011;21818;51.078;12.108;2023-04-09T01:16:36;25.60;;;14.95;;
35699;SDS011;21818;51.078;12.108;2023-04-09T01:19:18;23.02;;;14.27;;
35699;SDS011;21818;51.078;12.108;2023-04-09T01:21:52;28.27;;;14.68;;
35699;SDS011;21818;51.078;12.108;2023-04-09T01:24:32;22.52;;;12.95;;
35699;SDS011;21818;51.078;12.108;2023-04-09T01:27:06;24.55;;;14.02;;
35699;SDS011;21818;51.078;12.108;2023-04-09T01:29:34;22.65;;;12.82;;
35699;SDS011;21818;51.078;12.108;2023-04-09T01:32:03;24.75;;;14.02;;
35699;SDS011;21818;51.078;12.108;2023-04-09T01:34:31;26.83;;;13.85;;
35699;SDS011;21818;51.078;12.108;2023-04-09T01:36:57;24.55;;;14.07;;
35699;SDS011;21818;51.078;12.108;2023-04-09T01:39:26;23.42;;;13.80;;
35699;SDS011;21818;51.078;12.108;2023-04-09T01:41:53;25.05;;;13.85;;
35699;SDS011;21818;51.078;12.108;2023-04-09T01:44:20;26.33;;;14.20;;
35699;SDS011;21818;51.078;12.108;2023-04-09T01:46:48;23.35;;;13.05;;
35699;SDS011;21818;51.078;12.108;2023-04-09T01:49:14;27.40;;;16.13;;
35699;SDS011;21818;51.078;12.108;2023-04-09T01:51:41;26.08;;;13.95;;
35699;SDS011;21818;51.078;12.108;2023-04-09T01:54:07;27.30;;;14.30;;
35699;SDS011;21818;51.078;12.108;2023-04-09T01:56:51;25.15;;;14.10;;
35699;SDS011;21818;51.078;12.108;2023-04-09T01:59:16;26.55;;;14.32;;
35699;SDS011;21818;51.078;12.108;2023-04-09T02:01:45;26.23;;;15.43;;
35699;SDS011;21818;51.078;12.108;2023-04-09T02:07:10;27.80;;;15.00;;
35699;SDS011;21818;51.078;12.108;2023-04-09T02:09:47;29.33;;;15.95;;
35699;SDS011;21818;51.078;12.108;2023-04-09T02:12:15;24.55;;;14.05;;
35699;SDS011;21818;51.078;12.108;2023-04-09T02:14:44;27.08;;;14.88;;
35699;SDS011;21818;51.078;12.108;2023-04-09T02:17:11;25.75;;;14.50;;
35699;SDS011;21818;51.078;12.108;2023-04-09T02:19:40;25.08;;;14.02;;
35699;SDS011;21818;51.078;12.108;2023-04-09T02:22:07;25.70;;;14.57;;
35699;SDS011;21818;51.078;12.108;2023-04-09T02:24:33;24.42;;;14.00;;
35699;SDS011;21818;51.078;12.108;2023-04-09T02:26:59;26.55;;;14.68;;
35699;SDS011;21818;51.078;12.108;2023-04-09T02:29:24;26.35;;;14.52;;
35699;SDS011;21818;51.078;12.108;2023-04-09T02:31:50;26.50;;;15.13;;
35699;SDS011;21818;51.078;12.108;2023-04-09T02:34:17;26.70;;;14.38;;
35699;SDS011;21818;51.078;12.108;2023-04-09T02:36:43;25.90;;;14.10;;
35699;SDS011;21818;51.078;12.108;2023-04-09T02:39:08;30.27;;;15.32;;
35699;SDS011;21818;51.078;12.108;2023-04-09T02:41:34;25.52;;;14.57;;
35699;SDS011;21818;51.078;12.108;2023-04-09T02:43:59;24.95;;;14.85;;
35699;SDS011;21818;51.078;12.108;2023-04-09T02:46:25;28.48;;;14.32;;
35699;SDS011;21818;51.078;12.108;2023-04-09T02:48:51;24.77;;;13.60;;
35699;SDS011;21818;51.078;12.108;2023-04-09T02:51:16;26.13;;;14.38;;
35699;SDS011;21818;51.078;12.108;2023-04-09T02:53:42;23.45;;;13.50;;
35699;SDS011;21818;51.078;12.108;2023-04-09T02:56:09;30.38;;;16.38;;
35699;SDS011;21818;51.078;12.108;2023-04-09T02:58:35;25.63;;;14.95;;
35699;SDS011;21818;51.078;12.108;2023-04-09T03:01:00;25.27;;;13.90;;
35699;SDS011;21818;51.078;12.108;2023-04-09T03:03:26;27.25;;;15.55;;
35699;SDS011;21818;51.078;12.108;2023-04-09T03:05:51;23.40;;;13.48;;
35699;SDS011;21818;51.078;12.108;2023-04-09T03:08:17;23.20;;;13.25;;
35699;SDS011;21818;51.078;12.108;2023-04-09T03:10:42;25.42;;;13.23;;
35699;SDS011;21818;51.078;12.108;2023-04-09T03:13:08;26.55;;;13.32;;
35699;SDS011;21818;51.078;12.108;2023-04-09T03:15:33;25.00;;;14.18;;
35699;SDS011;21818;51.078;12.108;2023-04-09T03:17:59;28.50;;;14.43;;
35699;SDS011;21818;51.078;12.108;2023-04-09T03:20:24;23.90;;;13.85;;
35699;SDS011;21818;51.078;12.108;2023-04-09T03:22:50;22.85;;;13.45;;
35699;SDS011;21818;51.078;12.108;2023-04-09T03:25:15;22.35;;;12.85;;
35699;SDS011;21818;51.078;12.108;2023-04-09T03:27:43;24.08;;;12.90;;
35699;SDS011;21818;51.078;12.108;2023-04-09T03:30:09;25.63;;;13.77;;
35699;SDS011;21818;51.078;12.108;2023-04-09T03:32:35;29.80;;;14.52;;
35699;SDS011;21818;51.078;12.108;2023-04-09T03:35:01;24.55;;;13.98;;
35699;SDS011;21818;51.078;12.108;2023-04-09T03:37:26;28.20;;;15.45;;
35699;SDS011;21818;51.078;12.108;2023-04-09T03:39:52;24.23;;;13.85;;
35699;SDS011;21818;51.078;12.108;2023-04-09T03:42:17;25.48;;;13.65;;
35699;SDS011;21818;51.078;12.108;2023-04-09T03:44:43;30.70;;;15.55;;
35699;SDS011;21818;51.078;12.108;2023-04-09T03:47:08;25.00;;;14.93;;
35699;SDS011;21818;51.078;12.108;2023-04-09T03:49:34;28.02;;;15.35;;
35699;SDS011;21818;51.078;12.108;2023-04-09T03:52:00;24.92;;;13.95;;
35699;SDS011;21818;51.078;12.108;2023-04-09T03:54:29;29.20;;;15.05;;
35699;SDS011;21818;51.078;12.108;2023-04-09T03:56:55;23.67;;;13.88;;
35699;SDS011;21818;51.078;12.108;2023-04-09T03:59:21;26.15;;;13.68;;
35699;SDS011;21818;51.078;12.108;2023-04-09T04:01:47;28.70;;;14.52;;
35699;SDS011;21818;51.078;12.108;2023-04-09T04:04:13;26.58;;;14.27;;
35699;SDS011;21818;51.078;12.108;2023-04-09T04:06:38;29.08;;;15.82;;
35699;SDS011;21818;51.078;12.108;2023-04-09T04:09:04;25.45;;;13.98;;
35699;SDS011;21818;51.078;12.108;2023-04-09T04:11:29;25.88;;;14.27;;
35699;SDS011;21818;51.078;12.108;2023-04-09T04:13:55;23.80;;;13.77;;
35699;SDS011;21818;51.078;12.108;2023-04-09T04:16:21;23.20;;;12.48;;
35699;SDS011;21818;51.078;12.108;2023-04-09T04:18:46;22.65;;;12.90;;
35699;SDS011;21818;51.078;12.108;2023-04-09T04:21:12;24.25;;;13.40;;
35699;SDS011;21818;51.078;12.108;2023-04-09T04:23:39;26.85;;;13.50;;
35699;SDS011;21818;51.078;12.108;2023-04-09T04:26:13;29.48;;;14.40;;
35699;SDS011;21818;51.078;12.108;2023-04-09T04:28:39;25.98;;;13.63;;
35699;SDS011;21818;51.078;12.108;2023-04-09T04:31:08;22.00;;;12.55;;
35699;SDS011;21818;51.078;12.108;2023-04-09T04:33:35;22.33;;;12.82;;
35699;SDS011;21818;51.078;12.108;2023-04-09T04:38:33;22.08;;;12.85;;
35699;SDS011;21818;51.078;12.108;2023-04-09T04:41:00;22.70;;;12.68;;
35699;SDS011;21818;51.078;12.108;2023-04-09T04:43:26;26.70;;;12.48;;
35699;SDS011;21818;51.078;12.108;2023-04-09T04:45:52;25.00;;;13.05;;
35699;SDS011;21818;51.078;12.108;2023-04-09T04:48:18;27.75;;;14.00;;
35699;SDS011;21818;51.078;12.108;2023-04-09T04:50:44;25.85;;;13.30;;
35699;SDS011;21818;51.078;12.108;2023-04-09T04:53:09;21.10;;;12.05;;
35699;SDS011;21818;51.078;12.108;2023-04-09T04:55:35;22.38;;;11.93;;
35699;SDS011;21818;51.078;12.108;2023-04-09T04:58:03;18.83;;;11.07;;
35699;SDS011;21818;51.078;12.108;2023-04-09T05:00:29;18.20;;;10.90;;
35699;SDS011;21818;51.078;12.108;2023-04-09T05:02:54;21.73;;;11.02;;
35699;SDS011;21818;51.078;12.108;2023-04-09T05:05:20;19.70;;;11.20;;
35699;SDS011;21818;51.078;12.108;2023-04-09T05:07:46;19.85;;;10.13;;
35699;SDS011;21818;51.078;12.108;2023-04-09T05:10:11;19.35;;;10.40;;
35699;SDS011;21818;51.078;12.108;2023-04-09T05:12:37;18.38;;;9.73;;
35699;SDS011;21818;51.078;12.108;2023-04-09T05:15:02;17.50;;;10.80;;
35699;SDS011;21818;51.078;12.108;2023-04-09T05:17:28;23.48;;;11.57;;
35699;SDS011;21818;51.078;12.108;2023-04-09T05:19:54;22.17;;;10.70;;
35699;SDS011;21818;51.078;12.108;2023-04-09T05:22:21;19.33;;;10.65;;
35699;SDS011;21818;51.078;12.108;2023-04-09T05:24:47;18.92;;;11.18;;
35699;SDS011;21818;51.078;12.108;2023-04-09T05:27:13;20.70;;;11.80;;
35699;SDS011;21818;51.078;12.108;2023-04-09T05:29:38;18.75;;;10.52;;
35699;SDS011;21818;51.078;12.108;2023-04-09T05:32:04;20.73;;;10.38;;
35699;SDS011;21818;51.078;12.108;2023-04-09T05:34:30;18.45;;;10.07;;
35699;SDS011;21818;51.078;12.108;2023-04-09T05:36:56;20.30;;;11.02;;
35699;SDS011;21818;51.078;12.108;2023-04-09T05:39:22;17.65;;;11.15;;
35699;SDS011;21818;51.078;12.108;2023-04-09T05:41:47;19.58;;;12.55;;
35699;SDS011;21818;51.078;12.108;2023-04-09T05:44:13;23.08;;;11.93;;
35699;SDS011;21818;51.078;12.108;2023-04-09T05:46:38;24.05;;;12.73;;
35699;SDS011;21818;51.078;12.108;2023-04-09T05:49:04;21.27;;;12.10;;
35699;SDS011;21818;51.078;12.108;2023-04-09T05:51:30;22.27;;;12.50;;
35699;SDS011;21818;51.078;12.108;2023-04-09T05:53:55;24.83;;;12.80;;
35699;SDS011;21818;51.078;12.108;2023-04-09T05:56:21;26.85;;;13.77;;
35699;SDS011;21818;51.078;12.108;2023-04-09T05:58:47;62.85;;;13.50;;
35699;SDS011;21818;51.078;12.108;2023-04-09T06:01:13;45.60;;;11.48;;
35699;SDS011;21818;51.078;12.108;2023-04-09T06:03:39;33.60;;;10.20;;
35699;SDS011;21818;51.078;12.108;2023-04-09T06:06:05;39.03;;;10.07;;
35699;SDS011;21818;51.078;12.108;2023-04-09T06:08:31;29.98;;;10.13;;
35699;SDS011;21818;51.078;12.108;2023-04-09T06:10:57;38.83;;;11.45;;
35699;SDS011;21818;51.078;12.108;2023-04-09T06:13:22;33.05;;;10.63;;
35699;SDS011;21818;51.078;12.108;2023-04-09T06:15:48;34.28;;;9.43;;
35699;SDS011;21818;51.078;12.108;2023-04-09T06:18:14;32.70;;;9.27;;
35699;SDS011;21818;51.078;12.108;2023-04-09T06:20:40;29.85;;;10.20;;
35699;SDS011;21818;51.078;12.108;2023-04-09T06:23:05;32.25;;;10.38;;
35699;SDS011;21818;51.078;12.108;2023-04-09T06:25:31;36.40;;;10.25;;
35699;SDS011;21818;51.078;12.108;2023-04-09T06:27:57;32.78;;;11.02;;
35699;SDS011;21818;51.078;12.108;2023-04-09T06:30:23;24.52;;;9.52;;
35699;SDS011;21818;51.078;12.108;2023-04-09T06:32:49;27.88;;;10.23;;
35699;SDS011;21818;51.078;12.108;2023-04-09T06:35:14;23.65;;;9.10;;
35699;SDS011;21818;51.078;12.108;2023-04-09T06:37:40;29.98;;;9.82;;
35699;SDS011;21818;51.078;12.108;2023-04-09T06:40:06;27.60;;;9.75;;
35699;SDS011;21818;51.078;12.108;2023-04-09T06:42:32;31.40;;;9.57;;
35699;SDS011;21818;51.078;12.108;2023-04-09T06:44:58;31.10;;;9.70;;
35699;SDS011;21818;51.078;12.108;2023-04-09T06:47:23;38.55;;;10.30;;
35699;SDS011;21818;51.078;12.108;2023-04-09T06:49:49;23.63;;;8.98;;
35699;SDS011;21818;51.078;12.108;2023-04-09T06:52:14;25.95;;;8.85;;
35699;SDS011;21818;51.078;12.108;2023-04-09T06:54:40;31.67;;;10.32;;
35699;SDS011;21818;51.078;12.108;2023-04-09T06:57:06;27.48;;;8.65;;
35699;SDS011;21818;51.078;12.108;2023-04-09T06:59:32;28.77;;;9.98;;
35699;SDS011;21818;51.078;12.108;2023-04-09T07:01:58;23.48;;;9.40;;
35699;SDS011;21818;51.078;12.108;2023-04-09T07:04:24;24.35;;;8.68;;
35699;SDS011;21818;51.078;12.108;2023-04-09T07:06:50;26.13;;;10.15;;
35699;SDS011;21818;51.078;12.108;2023-04-09T07:09:18;24.60;;;9.88;;
35699;SDS011;21818;51.078;12.108;2023-04-09T07:11:44;24.83;;;9.02;;
35699;SDS011;21818;51.078;12.108;2023-04-09T07:14:10;22.55;;;8.73;;
35699;SDS011;21818;51.078;12.108;2023-04-09T07:16:36;21.80;;;8.57;;
35699;SDS011;21818;51.078;12.108;2023-04-09T07:19:01;25.83;;;8.30;;
35699;SDS011;21818;51.078;12.108;2023-04-09T07:21:27;25.58;;;8.00;;
35699;SDS011;21818;51.078;12.108;2023-04-09T07:23:53;29.98;;;9.95;;
35699;SDS011;21818;51.078;12.108;2023-04-09T07:26:18;26.05;;;10.10;;
35699;SDS011;21818;51.078;12.108;2023-04-09T07:28:44;29.02;;;10.25;;
35699;SDS011;21818;51.078;12.108;2023-04-09T07:31:10;28.77;;;9.38;;
35699;SDS011;21818;51.078;12.108;2023-04-09T07:33:35;24.33;;;8.75;;
35699;SDS011;21818;51.078;12.108;2023-04-09T07:36:01;22.90;;;8.38;;
35699;SDS011;21818;51.078;12.108;2023-04-09T07:38:30;17.88;;;7.25;;
35699;SDS011;21818;51.078;12.108;2023-04-09T07:40:55;17.33;;;7.68;;
35699;SDS011;21818;51.078;12.108;2023-04-09T07:43:21;24.55;;;8.45;;
35699;SDS011;21818;51.078;12.108;2023-04-09T07:45:49;19.55;;;7.57;;
35699;SDS011;21818;51.078;12.108;2023-04-09T07:48:15;20.23;;;8.32;;
35699;SDS011;21818;51.078;12.108;2023-04-09T07:50:41;23.17;;;8.88;;
35699;SDS011;21818;51.078;12.108;2023-04-09T07:53:07;21.95;;;9.68;;
35699;SDS011;21818;51.078;12.108;2023-04-09T07:55:32;30.20;;;10.07;;
35699;SDS011;21818;51.078;12.108;2023-04-09T07:57:58;19.48;;;8.02;;
35699;SDS011;21818;51.078;12.108;2023-04-09T08:00:24;19.30;;;7.45;;
35699;SDS011;21818;51.078;12.108;2023-04-09T08:02:49;20.48;;;7.97;;
35699;SDS011;21818;51.078;12.108;2023-04-09T08:05:15;18.45;;;8.18;;
35699;SDS011;21818;51.078;12.108;2023-04-09T08:07:40;21.63;;;7.90;;
35699;SDS011;21818;51.078;12.108;2023-04-09T08:10:06;18.63;;;7.35;;
35699;SDS011;21818;51.078;12.108;2023-04-09T08:12:32;21.50;;;8.85;;
35699;SDS011;21818;51.078;12.108;2023-04-09T08:14:58;23.55;;;9.48;;
35699;SDS011;21818;51.078;12.108;2023-04-09T08:17:23;17.33;;;7.63;;
35699;SDS011;21818;51.078;12.108;2023-04-09T08:19:49;19.98;;;8.23;;
35699;SDS011;21818;51.078;12.108;2023-04-09T08:22:14;16.00;;;8.88;;
35699;SDS011;21818;51.078;12.108;2023-04-09T08:24:41;19.27;;;8.55;;
35699;SDS011;21818;51.078;12.108;2023-04-09T08:27:07;21.80;;;8.65;;
35699;SDS011;21818;51.078;12.108;2023-04-09T08:29:33;31.17;;;9.15;;
35699;SDS011;21818;51.078;12.108;2023-04-09T08:31:59;21.10;;;8.00;;
35699;SDS011;21818;51.078;12.108;2023-04-09T08:34:24;20.85;;;8.10;;
35699;SDS011;21818;51.078;12.108;2023-04-09T08:36:50;17.20;;;7.35;;
35699;SDS011;21818;51.078;12.108;2023-04-09T08:39:15;19.33;;;7.78;;
35699;SDS011;21818;51.078;12.108;2023-04-09T08:41:44;22.20;;;8.15;;
35699;SDS011;21818;51.078;12.108;2023-04-09T08:44:12;19.70;;;7.90;;
35699;SDS011;21818;51.078;12.108;2023-04-09T08:46:37;19.00;;;8.98;;
35699;SDS011;21818;51.078;12.108;2023-04-09T08:49:03;17.15;;;6.65;;
35699;SDS011;21818;51.078;12.108;2023-04-09T08:51:29;15.52;;;7.13;;
35699;SDS011;21818;51.078;12.108;2023-04-09T08:53:56;14.98;;;6.57;;
35699;SDS011;21818;51.078;12.108;2023-04-09T08:56:23;17.38;;;7.05;;
35699;SDS011;21818;51.078;12.108;2023-04-09T08:58:50;19.85;;;6.88;;
35699;SDS011;21818;51.078;12.108;2023-04-09T09:01:23;22.50;;;8.02;;
35699;SDS011;21818;51.078;12.108;2023-04-09T09:06:28;15.75;;;7.00;;
35699;SDS011;21818;51.078;12.108;2023-04-09T09:09:03;15.98;;;6.75;;
35699;SDS011;21818;51.078;12.108;2023-04-09T09:11:34;16.10;;;6.95;;
35699;SDS011;21818;51.078;12.108;2023-04-09T09:14:08;16.95;;;7.50;;
35699;SDS011;21818;51.078;12.108;2023-04-09T09:16:34;14.98;;;6.43;;
35699;SDS011;21818;51.078;12.108;2023-04-09T09:19:04;15.30;;;6.00;;
35699;SDS011;21818;51.078;12.108;2023-04-09T09:21:30;15.40;;;6.57;;
35699;SDS011;21818;51.078;12.108;2023-04-09T09:23:57;15.70;;;6.18;;
35699;SDS011;21818;51.078;12.108;2023-04-09T09:26:26;12.65;;;6.00;;
35699;SDS011;21818;51.078;12.108;2023-04-09T09:28:53;15.20;;;6.18;;
35699;SDS011;21818;51.078;12.108;2023-04-09T09:31:19;14.82;;;5.45;;
35699;SDS011;21818;51.078;12.108;2023-04-09T09:33:47;17.80;;;6.47;;
35699;SDS011;21818;51.078;12.108;2023-04-09T09:36:14;14.48;;;5.70;;
35699;SDS011;21818;51.078;12.108;2023-04-09T09:38:52;14.48;;;6.03;;
35699;SDS011;21818;51.078;12.108;2023-04-09T09:41:21;16.00;;;6.57;;
35699;SDS011;21818;51.078;12.108;2023-04-09T09:43:48;13.07;;;6.72;;
35699;SDS011;21818;51.078;12.108;2023-04-09T09:46:14;13.05;;;6.40;;
35699;SDS011;21818;51.078;12.108;2023-04-09T09:48:40;11.98;;;5.95;;
35699;SDS011;21818;51.078;12.108;2023-04-09T09:51:10;14.05;;;5.90;;
35699;SDS011;21818;51.078;12.108;2023-04-09T09:53:36;15.57;;;6.55;;
35699;SDS011;21818;51.078;12.108;2023-04-09T09:56:04;12.48;;;6.18;;
35699;SDS011;21818;51.078;12.108;2023-04-09T09:58:40;14.40;;;6.60;;
35699;SDS011;21818;51.078;12.108;2023-04-09T10:01:12;14.45;;;6.65;;
35699;SDS011;21818;51.078;12.108;2023-04-09T10:03:39;10.63;;;5.28;;
35699;SDS011;21818;51.078;12.108;2023-04-09T10:06:08;14.35;;;5.70;;
35699;SDS011;21818;51.078;12.108;2023-04-09T10:08:36;17.83;;;7.72;;
35699;SDS011;21818;51.078;12.108;2023-04-09T10:11:06;11.70;;;6.18;;
35699;SDS011;21818;51.078;12.108;2023-04-09T10:13:36;11.43;;;6.00;;
35699;SDS011;21818;51.078;12.108;2023-04-09T10:16:04;12.85;;;5.47;;
35699;SDS011;21818;51.078;12.108;2023-04-09T10:18:31;12.07;;;5.53;;
35699;SDS011;21818;51.078;12.108;2023-04-09T10:21:00;15.60;;;6.93;;
35699;SDS011;21818;51.078;12.108;2023-04-09T10:26:09;13.00;;;6.22;;
35699;SDS011;21818;51.078;12.108;2023-04-09T10:28:37;14.05;;;6.70;;
35699;SDS011;21818;51.078;12.108;2023-04-09T10:31:04;11.38;;;6.35;;
35699;SDS011;21818;51.078;12.108;2023-04-09T10:33:30;10.27;;;5.88;;
35699;SDS011;21818;51.078;12.108;2023-04-09T10:36:01;14.70;;;7.07;;
35699;SDS011;21818;51.078;12.108;2023-04-09T10:38:36;16.10;;;7.13;;
35699;SDS011;21818;51.078;12.108;2023-04-09T10:41:21;15.68;;;8.50;;
35699;SDS011;21818;51.078;12.108;2023-04-09T10:43:51;13.32;;;6.85;;
35699;SDS011;21818;51.078;12.108;2023-04-09T10:46:27;16.30;;;6.28;;
35699;SDS011;21818;51.078;12.108;2023-04-09T10:49:10;13.43;;;6.13;;
35699;SDS011;21818;51.078;12.108;2023-04-09T10:51:39;14.15;;;7.55;;
35699;SDS011;21818;51.078;12.108;2023-04-09T10:54:34;15.90;;;6.82;;
35699;SDS011;21818;51.078;12.108;2023-04-09T10:59:32;12.38;;;7.25;;
35699;SDS011;21818;51.078;12.108;2023-04-09T11:01:59;12.63;;;7.43;;
35699;SDS011;21818;51.078;12.108;2023-04-09T11:04:27;13.70;;;6.88;;
35699;SDS011;21818;51.078;12.108;2023-04-09T11:07:03;10.95;;;5.63;;
35699;SDS011;21818;51.078;12.108;2023-04-09T11:09:33;13.63;;;7.32;;
35699;SDS011;21818;51.078;12.108;2023-04-09T11:12:01;12.88;;;7.13;;
35699;SDS011;21818;51.078;12.108;2023-04-09T11:14:27;13.05;;;6.78;;
35699;SDS011;21818;51.078;12.108;2023-04-09T11:16:53;13.98;;;6.97;;
35699;SDS011;21818;51.078;12.108;2023-04-09T11:19:19;15.15;;;7.43;;
35699;SDS011;21818;51.078;12.108;2023-04-09T11:21:46;13.85;;;6.68;;
35699;SDS011;21818;51.078;12.108;2023-04-09T11:24:12;11.23;;;4.95;;
35699;SDS011;21818;51.078;12.108;2023-04-09T11:26:38;12.05;;;5.78;;
35699;SDS011;21818;51.078;12.108;2023-04-09T11:29:07;11.15;;;5.38;;
35699;SDS011;21818;51.078;12.108;2023-04-09T11:31:33;10.88;;;5.68;;
35699;SDS011;21818;51.078;12.108;2023-04-09T11:33:59;8.60;;;5.13;;
35699;SDS011;21818;51.078;12.108;2023-04-09T11:36:25;9.75;;;5.53;;
35699;SDS011;21818;51.078;12.108;2023-04-09T11:38:51;9.23;;;5.40;;
35699;SDS011;21818;51.078;12.108;2023-04-09T11:41:32;13.98;;;6.63;;
35699;SDS011;21818;51.078;12.108;2023-04-09T11:44:02;12.73;;;7.20;;
35699;SDS011;21818;51.078;12.108;2023-04-09T11:46:28;12.07;;;7.28;;
35699;SDS011;21818;51.078;12.108;2023-04-09T11:48:58;12.35;;;7.30;;
35699;SDS011;21818;51.078;12.108;2023-04-09T11:51:25;12.18;;;6.90;;
35699;SDS011;21818;51.078;12.108;2023-04-09T11:53:51;11.75;;;6.43;;
35699;SDS011;21818;51.078;12.108;2023-04-09T11:56:17;11.27;;;7.18;;
35699;SDS011;21818;51.078;12.108;2023-04-09T11:58:47;12.40;;;8.05;;
35699;SDS011;21818;51.078;12.108;2023-04-09T12:01:13;15.30;;;8.68;;
35699;SDS011;21818;51.078;12.108;2023-04-09T12:03:39;11.93;;;7.38;;
35699;SDS011;21818;51.078;12.108;2023-04-09T12:06:06;10.50;;;7.03;;
35699;SDS011;21818;51.078;12.108;2023-04-09T12:08:33;13.00;;;7.55;;
35699;SDS011;21818;51.078;12.108;2023-04-09T12:11:06;14.88;;;7.03;;
35699;SDS011;21818;51.078;12.108;2023-04-09T12:13:36;13.45;;;7.65;;
35699;SDS011;21818;51.078;12.108;2023-04-09T12:16:06;13.25;;;7.18;;
35699;SDS011;21818;51.078;12.108;2023-04-09T12:18:34;10.30;;;6.18;;
35699;SDS011;21818;51.078;12.108;2023-04-09T12:21:01;10.82;;;5.93;;
35699;SDS011;21818;51.078;12.108;2023-04-09T12:23:27;9.63;;;5.78;;
35699;SDS011;21818;51.078;12.108;2023-04-09T12:25:55;10.25;;;6.40;;
35699;SDS011;21818;51.078;12.108;2023-04-09T12:28:23;11.10;;;6.05;;
35699;SDS011;21818;51.078;12.108;2023-04-09T12:30:49;10.05;;;5.97;;
35699;SDS011;21818;51.078;12.108;2023-04-09T12:33:15;8.90;;;5.78;;
35699;SDS011;21818;51.078;12.108;2023-04-09T12:35:41;10.27;;;5.95;;
35699;SDS011;21818;51.078;12.108;2023-04-09T12:38:06;9.82;;;5.57;;
35699;SDS011;21818;51.078;12.108;2023-04-09T12:40:33;10.00;;;5.97;;
35699;SDS011;21818;51.078;12.108;2023-04-09T12:43:00;12.70;;;6.30;;
35699;SDS011;21818;51.078;12.108;2023-04-09T12:45:26;8.93;;;5.45;;
35699;SDS011;21818;51.078;12.108;2023-04-09T12:47:52;10.55;;;5.65;;
35699;SDS011;21818;51.078;12.108;2023-04-09T12:50:17;12.85;;;6.18;;
35699;SDS011;21818;51.078;12.108;2023-04-09T12:52:43;8.90;;;5.15;;
35699;SDS011;21818;51.078;12.108;2023-04-09T12:55:09;9.73;;;5.55;;
35699;SDS011;21818;51.078;12.108;2023-04-09T12:57:36;12.63;;;6.30;;
35699;SDS011;21818;51.078;12.108;2023-04-09T13:00:03;12.05;;;6.47;;
35699;SDS011;21818;51.078;12.108;2023-04-09T13:02:33;12.07;;;6.30;;
35699;SDS011;21818;51.078;12.108;2023-04-09T13:04:58;10.30;;;6.72;;
35699;SDS011;21818;51.078;12.108;2023-04-09T13:07:24;9.90;;;6.65;;
35699;SDS011;21818;51.078;12.108;2023-04-09T13:09:53;9.57;;;6.13;;
35699;SDS011;21818;51.078;12.108;2023-04-09T13:12:19;9.25;;;5.53;;
35699;SDS011;21818;51.078;12.108;2023-04-09T13:14:45;10.55;;;6.53;;
35699;SDS011;21818;51.078;12.108;2023-04-09T13:17:12;9.18;;;5.80;;
35699;SDS011;21818;51.078;12.108;2023-04-09T13:19:38;9.85;;;6.22;;
35699;SDS011;21818;51.078;12.108;2023-04-09T13:22:03;9.57;;;5.95;;
35699;SDS011;21818;51.078;12.108;2023-04-09T13:24:32;8.23;;;5.88;;
35699;SDS011;21818;51.078;12.108;2023-04-09T13:26:58;8.25;;;4.80;;
35699;SDS011;21818;51.078;12.108;2023-04-09T13:29:24;6.72;;;4.40;;
35699;SDS011;21818;51.078;12.108;2023-04-09T13:31:53;7.90;;;4.60;;
35699;SDS011;21818;51.078;12.108;2023-04-09T13:34:21;6.97;;;4.63;;
35699;SDS011;21818;51.078;12.108;2023-04-09T13:36:50;7.60;;;4.45;;
35699;SDS011;21818;51.078;12.108;2023-04-09T13:39:16;8.48;;;4.65;;
35699;SDS011;21818;51.078;12.108;2023-04-09T13:41:41;6.38;;;4.53;;
35699;SDS011;21818;51.078;12.108;2023-04-09T13:44:07;9.75;;;5.35;;
35699;SDS011;21818;51.078;12.108;2023-04-09T13:46:33;7.85;;;4.68;;
35699;SDS011;21818;51.078;12.108;2023-04-09T13:48:58;6.95;;;4.10;;
35699;SDS011;21818;51.078;12.108;2023-04-09T13:51:25;10.02;;;4.57;;
35699;SDS011;21818;51.078;12.108;2023-04-09T13:53:52;5.97;;;4.40;;
35699;SDS011;21818;51.078;12.108;2023-04-09T13:56:18;6.72;;;4.35;;
35699;SDS011;21818;51.078;12.108;2023-04-09T13:58:44;9.55;;;4.45;;
35699;SDS011;21818;51.078;12.108;2023-04-09T14:01:10;7.40;;;4.57;;
35699;SDS011;21818;51.078;12.108;2023-04-09T14:03:36;6.88;;;4.65;;
35699;SDS011;21818;51.078;12.108;2023-04-09T14:06:04;7.25;;;4.70;;
35699;SDS011;21818;51.078;12.108;2023-04-09T14:08:30;6.88;;;4.50;;
35699;SDS011;21818;51.078;12.108;2023-04-09T14:10:55;8.60;;;4.85;;
35699;SDS011;21818;51.078;12.108;2023-04-09T14:13:21;6.93;;;4.05;;
35699;SDS011;21818;51.078;12.108;2023-04-09T14:15:46;7.50;;;3.90;;
35699;SDS011;21818;51.078;12.108;2023-04-09T14:18:13;7.47;;;3.78;;
35699;SDS011;21818;51.078;12.108;2023-04-09T14:20:39;9.93;;;5.18;;
35699;SDS011;21818;51.078;12.108;2023-04-09T14:23:05;8.07;;;4.40;;
35699;SDS011;21818;51.078;12.108;2023-04-09T14:25:30;7.43;;;4.78;;
35699;SDS011;21818;51.078;12.108;2023-04-09T14:27:56;6.88;;;4.22;;
35699;SDS011;21818;51.078;12.108;2023-04-09T14:30:21;7.75;;;4.30;;
35699;SDS011;21818;51.078;12.108;2023-04-09T14:32:47;5.80;;;3.60;;